createdAt,value
2018-05-24T00:02:01.995Z,21.90
2018-05-24T00:04:29.503Z,21.90
2018-05-24T00:06:57.780Z,21.80
2018-05-24T00:09:25.399Z,21.80
2018-05-24T00:11:52.880Z,21.80
2018-05-24T00:14:20.370Z,21.70
2018-05-24T00:16:47.855Z,21.70
2018-05-24T00:19:15.327Z,21.70
2018-05-24T00:21:42.800Z,21.70
2018-05-24T00:24:10.303Z,21.60
2018-05-24T00:26:38.594Z,21.60
2018-05-24T00:29:06.095Z,21.50
2018-05-24T00:31:33.650Z,21.50
2018-05-24T00:34:01.140Z,21.50
2018-05-24T00:36:28.812Z,21.50
2018-05-24T00:38:56.320Z,21.50
2018-05-24T00:41:23.823Z,21.40
2018-05-24T00:43:51.382Z,21.40
2018-05-24T00:46:19.627Z,21.40
2018-05-24T00:48:47.116Z,21.40
2018-05-24T00:51:14.571Z,21.30
2018-05-24T00:53:42.062Z,21.40
2018-05-24T00:56:09.534Z,21.30
2018-05-24T00:58:37.078Z,21.30
2018-05-24T01:01:04.552Z,21.30
2018-05-24T01:03:32.046Z,20.50
2018-05-24T01:05:59.525Z,21.20
2018-05-24T01:08:27.039Z,21.20
2018-05-24T01:10:54.527Z,21.20
2018-05-24T01:13:22.048Z,21.20
2018-05-24T01:15:49.609Z,21.20
2018-05-24T01:18:17.075Z,21.10
2018-05-24T01:20:44.535Z,21.10
2018-05-24T01:23:12.027Z,21.10
2018-05-24T01:25:40.317Z,21.10
2018-05-24T01:28:07.771Z,21.00
2018-05-24T01:30:35.260Z,21.10
2018-05-24T01:33:02.740Z,21.00
2018-05-24T01:35:31.020Z,21.00
2018-05-24T01:37:58.502Z,21.00
2018-05-24T01:40:26.781Z,21.00
2018-05-24T01:42:54.256Z,21.00
2018-05-24T01:45:22.537Z,21.00
2018-05-24T01:47:49.987Z,21.00
2018-05-24T01:50:18.247Z,21.00
2018-05-24T01:52:45.719Z,20.90
2018-05-24T01:55:13.214Z,20.90
2018-05-24T01:57:40.685Z,21.00
2018-05-24T02:00:08.163Z,20.90
2018-05-24T02:02:35.628Z,20.90
2018-05-24T02:05:03.107Z,20.90
2018-05-24T02:07:30.595Z,20.90
2018-05-24T02:09:58.159Z,21.00
2018-05-24T02:12:25.624Z,20.90
2018-05-24T02:14:53.124Z,20.90
2018-05-24T02:17:21.370Z,20.90
2018-05-24T02:19:48.935Z,20.90
2018-05-24T02:22:16.395Z,20.90
2018-05-24T02:24:43.874Z,21.00
2018-05-24T02:27:11.484Z,21.00
2018-05-24T02:29:39.037Z,21.00
2018-05-24T02:32:06.494Z,21.00
2018-05-24T02:34:33.993Z,21.00
2018-05-24T02:37:01.463Z,21.00
2018-05-24T02:39:28.996Z,21.00
2018-05-24T02:41:56.529Z,21.00
2018-05-24T02:44:24.774Z,21.10
2018-05-24T02:46:52.273Z,21.00
2018-05-24T02:49:19.747Z,21.10
2018-05-24T02:51:47.220Z,21.10
2018-05-24T02:54:14.700Z,21.10
2018-05-24T02:56:43.014Z,21.10
2018-05-24T02:59:10.483Z,21.10
2018-05-24T03:01:37.965Z,21.10
2018-05-24T03:04:05.756Z,21.10
2018-05-24T03:06:33.237Z,21.10
2018-05-24T03:09:00.875Z,21.10
2018-05-24T03:11:29.099Z,21.10
2018-05-24T03:13:56.603Z,21.10
2018-05-24T03:16:24.935Z,21.10
2018-05-24T03:18:52.442Z,21.10
2018-05-24T03:21:19.904Z,21.10
2018-05-24T03:23:47.368Z,21.10
2018-05-24T03:26:14.848Z,21.10
2018-05-24T03:28:42.317Z,21.10
2018-05-24T03:31:09.812Z,21.00
2018-05-24T03:33:37.287Z,21.10
2018-05-24T03:36:04.776Z,21.10
2018-05-24T03:38:33.051Z,21.00
2018-05-24T03:41:00.527Z,21.00
2018-05-24T03:43:28.013Z,21.00
2018-05-24T03:45:56.291Z,21.00
2018-05-24T03:48:24.543Z,21.00
2018-05-24T03:50:52.057Z,21.00
2018-05-24T03:53:20.303Z,21.00
2018-05-24T03:55:47.787Z,20.90
2018-05-24T03:58:15.244Z,21.00
2018-05-24T04:03:51.140Z,21.00
2018-05-24T04:06:18.622Z,21.00
2018-05-24T04:08:46.098Z,20.90
2018-05-24T04:13:47.531Z,20.90
2018-05-24T04:16:15.778Z,20.90
2018-05-24T04:18:43.239Z,20.90
2018-05-24T04:21:10.931Z,20.90
2018-05-24T04:23:38.401Z,20.90
2018-05-24T04:26:05.891Z,20.90
2018-05-24T04:28:33.405Z,21.00
2018-05-24T04:31:00.884Z,21.00
2018-05-24T04:33:28.423Z,20.90
2018-05-24T04:35:56.667Z,21.00
2018-05-24T04:38:24.129Z,21.00
2018-05-24T04:40:51.617Z,21.00
2018-05-24T04:43:19.080Z,21.00
2018-05-24T04:45:46.587Z,21.00
2018-05-24T04:48:14.886Z,21.10
2018-05-24T04:50:43.142Z,21.20
2018-05-24T04:53:10.631Z,21.10
2018-05-24T04:55:38.119Z,21.10
2018-05-24T04:58:05.669Z,21.20
2018-05-24T05:00:33.211Z,21.20
2018-05-24T05:03:00.688Z,21.30
2018-05-24T05:05:28.953Z,21.30
2018-05-24T05:07:56.427Z,21.30
2018-05-24T05:10:23.933Z,21.30
2018-05-24T05:12:51.497Z,21.40
2018-05-24T05:15:20.148Z,21.40
2018-05-24T05:17:47.608Z,21.50
2018-05-24T05:20:15.142Z,21.50
2018-05-24T05:22:42.618Z,21.50
2018-05-24T05:25:10.121Z,21.50
2018-05-24T05:27:37.606Z,21.60
2018-05-24T05:30:05.063Z,21.60
2018-05-24T05:32:33.345Z,21.60
2018-05-24T05:35:01.692Z,21.70
2018-05-24T05:37:29.257Z,21.70
2018-05-24T05:39:56.667Z,21.70
2018-05-24T05:42:24.189Z,21.70
2018-05-24T05:44:51.744Z,21.70
2018-05-24T05:47:19.996Z,21.80
2018-05-24T05:49:47.471Z,21.80
2018-05-24T05:52:15.063Z,21.80
2018-05-24T05:54:43.295Z,22.00
2018-05-24T05:57:10.779Z,21.90
2018-05-24T05:59:38.263Z,22.00
2018-05-24T06:02:05.746Z,22.10
2018-05-24T06:04:33.227Z,22.10
2018-05-24T06:07:00.703Z,22.20
2018-05-24T06:09:28.956Z,22.30
2018-05-24T06:11:56.454Z,22.30
2018-05-24T06:14:24.739Z,22.30
2018-05-24T06:16:53.028Z,22.40
2018-05-24T06:19:20.588Z,22.30
2018-05-24T06:21:48.093Z,22.40
2018-05-24T06:24:16.352Z,22.60
2018-05-24T06:26:43.827Z,22.60
2018-05-24T06:29:11.296Z,22.60
2018-05-24T06:31:38.771Z,22.70
2018-05-24T06:34:06.276Z,22.80
2018-05-24T06:36:33.756Z,22.80
2018-05-24T06:39:01.223Z,22.90
2018-05-24T06:41:28.731Z,23.00
2018-05-24T06:43:56.205Z,23.00
2018-05-24T06:46:23.720Z,23.10
2018-05-24T06:48:51.981Z,23.30
2018-05-24T06:51:19.483Z,23.20
2018-05-24T06:53:47.751Z,23.40
2018-05-24T06:56:15.216Z,23.40
2018-05-24T06:58:42.722Z,23.50
2018-05-24T07:01:10.225Z,23.60
2018-05-24T07:03:37.678Z,23.70
2018-05-24T07:06:05.155Z,23.80
2018-05-24T07:08:32.678Z,23.90
2018-05-24T07:11:00.249Z,23.90
2018-05-24T07:13:27.639Z,24.00
2018-05-24T07:15:55.177Z,24.00
2018-05-24T07:18:22.645Z,24.10
2018-05-24T07:20:50.128Z,24.20
2018-05-24T07:23:17.589Z,24.20
2018-05-24T07:25:45.051Z,24.30
2018-05-24T07:28:12.537Z,24.40
2018-05-24T07:30:40.052Z,24.40
2018-05-24T07:33:08.295Z,24.70
2018-05-24T07:35:35.757Z,24.60
2018-05-24T07:38:03.272Z,24.80
2018-05-24T07:40:31.538Z,25.10
2018-05-24T07:42:59.809Z,25.20
2018-05-24T07:45:27.295Z,25.20
2018-05-24T07:47:55.493Z,25.40
2018-05-24T07:50:23.763Z,25.60
2018-05-24T07:52:51.264Z,25.60
2018-05-24T07:55:18.720Z,25.70
2018-05-24T07:57:46.203Z,25.80
2018-05-24T08:00:13.670Z,25.90
2018-05-24T08:02:41.148Z,25.90
2018-05-24T08:05:08.600Z,26.00
2018-05-24T08:07:36.080Z,26.00
2018-05-24T08:10:03.568Z,26.00
2018-05-24T08:12:31.980Z,25.90
2018-05-24T08:14:59.466Z,25.90
2018-05-24T08:17:26.964Z,25.90
2018-05-24T08:19:54.463Z,25.90
2018-05-24T08:22:22.737Z,25.90
2018-05-24T08:24:50.204Z,25.90
2018-05-24T08:27:17.684Z,25.90
2018-05-24T08:29:45.178Z,25.90
2018-05-24T08:32:13.420Z,26.00
2018-05-24T08:34:40.890Z,26.00
2018-05-24T08:37:08.399Z,26.00
2018-05-24T08:39:36.636Z,26.20
2018-05-24T08:42:04.113Z,26.10
2018-05-24T08:44:31.647Z,26.20
2018-05-24T08:46:59.957Z,26.40
2018-05-24T08:49:27.403Z,26.50
2018-05-24T08:51:55.705Z,26.70
2018-05-24T08:54:23.217Z,26.70
2018-05-24T08:56:50.699Z,26.80
2018-05-24T08:59:18.160Z,27.00
2018-05-24T09:01:45.655Z,27.20
2018-05-24T09:04:13.135Z,27.30
2018-05-24T09:06:41.391Z,27.60
2018-05-24T09:09:08.892Z,27.60
2018-05-24T09:11:36.347Z,27.70
2018-05-24T09:14:03.816Z,27.80
2018-05-24T09:16:31.296Z,27.90
2018-05-24T09:18:58.760Z,28.00
2018-05-24T09:21:26.350Z,28.10
2018-05-24T09:23:53.853Z,28.20
2018-05-24T09:26:21.388Z,28.30
2018-05-24T09:28:48.862Z,28.40
2018-05-24T09:31:16.334Z,28.50
2018-05-24T09:33:44.721Z,28.60
2018-05-24T09:36:13.042Z,28.60
2018-05-24T09:38:40.440Z,28.60
2018-05-24T09:41:07.902Z,28.70
2018-05-24T09:43:35.379Z,28.70
2018-05-24T09:46:02.891Z,28.80
2018-05-24T09:48:30.373Z,28.80
2018-05-24T09:50:58.617Z,28.80
2018-05-24T09:53:26.098Z,28.70
2018-05-24T09:55:53.663Z,28.70
2018-05-24T09:58:21.238Z,28.70
2018-05-24T10:00:48.736Z,28.70
2018-05-24T10:03:16.227Z,28.60
2018-05-24T10:05:44.455Z,28.60
2018-05-24T10:08:11.931Z,28.60
2018-05-24T10:10:39.475Z,28.70
2018-05-24T10:13:06.903Z,28.70
2018-05-24T10:15:34.453Z,28.70
2018-05-24T10:18:01.940Z,28.70
2018-05-24T10:20:29.414Z,28.70
2018-05-24T10:22:56.927Z,28.60
2018-05-24T10:25:24.408Z,28.60
2018-05-24T10:27:51.917Z,28.60
2018-05-24T10:30:19.388Z,28.50
2018-05-24T10:32:46.872Z,28.50
2018-05-24T10:35:14.363Z,28.50
2018-05-24T10:37:42.618Z,28.50
2018-05-24T10:40:10.084Z,28.50
2018-05-24T10:42:38.364Z,28.50
2018-05-24T10:45:05.982Z,28.50
2018-05-24T10:47:34.518Z,28.40
2018-05-24T10:50:02.071Z,28.40
2018-05-24T10:52:29.488Z,28.40
2018-05-24T10:54:56.957Z,28.40
2018-05-24T10:57:24.442Z,28.40
2018-05-24T10:59:51.925Z,28.40
2018-05-24T11:02:19.406Z,28.50
2018-05-24T11:04:46.880Z,28.50
2018-05-24T11:07:14.361Z,28.50
2018-05-24T11:09:42.641Z,28.60
2018-05-24T11:12:10.892Z,28.60
2018-05-24T11:14:39.115Z,28.60
2018-05-24T11:17:07.371Z,28.50
2018-05-24T11:19:34.873Z,28.50
2018-05-24T11:22:03.130Z,28.30
2018-05-24T11:24:30.597Z,28.30
2018-05-24T11:26:58.080Z,28.20
2018-05-24T11:29:25.624Z,28.00
2018-05-24T11:31:53.101Z,27.90
2018-05-24T11:34:20.595Z,27.70
2018-05-24T11:36:48.070Z,27.60
2018-05-24T11:39:15.548Z,27.50
2018-05-24T11:41:43.006Z,27.30
2018-05-24T11:44:10.489Z,27.20
2018-05-24T11:46:37.950Z,27.10
2018-05-24T11:49:05.434Z,27.00
2018-05-24T11:51:32.899Z,26.90
2018-05-24T11:54:00.381Z,26.90
2018-05-24T11:56:27.903Z,26.70
2018-05-24T11:58:55.423Z,26.70
2018-05-24T12:01:22.926Z,26.60
2018-05-24T12:03:50.420Z,26.60
2018-05-24T12:06:17.890Z,26.50
2018-05-24T12:08:45.375Z,26.50
2018-05-24T12:11:12.844Z,26.50
2018-05-24T12:13:40.335Z,26.50
2018-05-24T12:16:07.808Z,26.50
2018-05-24T12:18:35.358Z,26.40
2018-05-24T12:21:02.825Z,26.40
2018-05-24T12:23:30.308Z,26.50
2018-05-24T12:25:57.802Z,26.50
2018-05-24T12:28:25.365Z,26.60
2018-05-24T12:30:52.836Z,26.70
2018-05-24T12:33:20.319Z,26.80
2018-05-24T12:35:47.779Z,27.00
2018-05-24T12:38:15.274Z,27.20
2018-05-24T12:40:44.191Z,27.70
2018-05-24T12:43:12.446Z,28.20
2018-05-24T12:45:39.907Z,28.20
2018-05-24T12:48:07.401Z,28.60
2018-05-24T12:50:34.859Z,29.00
2018-05-24T12:53:02.348Z,29.60
2018-05-24T12:55:30.588Z,30.70
2018-05-24T12:57:58.148Z,30.70
2018-05-24T13:00:25.760Z,31.30
2018-05-24T13:02:53.296Z,31.90
2018-05-24T13:05:20.780Z,32.50
2018-05-24T13:07:48.251Z,33.00
2018-05-24T13:10:15.711Z,33.70
2018-05-24T13:12:43.207Z,34.30
2018-05-24T13:15:10.675Z,34.90
2018-05-24T13:17:38.175Z,35.30
2018-05-24T13:20:06.421Z,36.00
2018-05-24T13:22:33.887Z,35.90
2018-05-24T13:25:01.395Z,36.30
2018-05-24T13:27:28.874Z,36.80
2018-05-24T13:29:56.463Z,37.40
2018-05-24T13:32:24.791Z,38.40
2018-05-24T13:34:52.334Z,38.30
2018-05-24T13:37:19.868Z,38.90
2018-05-24T13:39:47.418Z,39.40
2018-05-24T13:42:15.049Z,39.80
2018-05-24T13:44:42.596Z,40.10
2018-05-24T13:47:10.074Z,40.40
2018-05-24T13:49:37.586Z,40.80
2018-05-24T13:52:05.067Z,41.00
2018-05-24T13:54:32.707Z,41.10
2018-05-24T13:57:00.161Z,41.20
2018-05-24T13:59:27.903Z,41.10
2018-05-24T14:01:55.427Z,40.90
2018-05-24T14:04:23.226Z,40.70
2018-05-24T14:06:50.726Z,40.40
2018-05-24T14:09:18.228Z,40.00
2018-05-24T14:11:45.717Z,39.60
2018-05-24T14:14:13.970Z,38.70
2018-05-24T14:16:41.436Z,38.60
2018-05-24T14:19:08.919Z,38.20
2018-05-24T14:21:36.484Z,37.80
2018-05-24T14:24:03.959Z,37.30
2018-05-24T14:26:31.431Z,36.90
2018-05-24T14:28:58.948Z,36.60
2018-05-24T14:31:26.452Z,36.40
2018-05-24T14:33:53.980Z,36.20
2018-05-24T14:36:21.462Z,36.00
2018-05-24T14:38:48.958Z,35.70
2018-05-24T14:41:16.422Z,35.60
2018-05-24T14:43:43.911Z,35.40
2018-05-24T14:46:11.380Z,35.20
2018-05-24T14:48:38.919Z,35.10
2018-05-24T14:51:06.388Z,35.20
2018-05-24T14:53:33.889Z,35.40
2018-05-24T14:56:01.353Z,35.70
2018-05-24T14:58:29.373Z,36.10
2018-05-24T15:00:56.836Z,36.60
2018-05-24T15:03:24.336Z,37.10
2018-05-24T15:05:52.629Z,37.80
2018-05-24T15:08:20.899Z,38.10
2018-05-24T15:10:48.372Z,38.10
2018-05-24T15:13:27.768Z,38.40
2018-05-24T15:15:55.278Z,38.70
2018-05-24T15:18:22.758Z,38.80
2018-05-24T15:20:50.313Z,38.80
2018-05-24T15:23:17.775Z,38.60
2018-05-24T15:25:45.252Z,38.30
2018-05-24T15:28:12.736Z,38.00
2018-05-24T15:30:40.215Z,37.60
2018-05-24T15:33:07.691Z,37.20
2018-05-24T15:35:35.950Z,36.60
2018-05-24T15:38:03.428Z,36.50
2018-05-24T15:40:31.080Z,36.30
2018-05-24T15:42:58.565Z,35.90
2018-05-24T15:45:26.086Z,35.60
2018-05-24T15:47:54.495Z,34.90
2018-05-24T15:50:21.995Z,34.90
2018-05-24T15:52:49.461Z,34.60
2018-05-24T15:55:16.967Z,34.30
2018-05-24T15:57:44.422Z,34.10
2018-05-24T16:00:11.899Z,33.80
2018-05-24T16:02:39.980Z,33.60
2018-05-24T16:05:07.547Z,33.50
2018-05-24T16:07:35.021Z,33.30
2018-05-24T16:10:02.520Z,33.20
2018-05-24T16:12:30.043Z,33.10
2018-05-24T16:14:57.547Z,33.00
2018-05-24T16:17:25.025Z,32.90
2018-05-24T16:19:52.535Z,32.90
2018-05-24T16:22:20.766Z,32.70
2018-05-24T16:24:48.391Z,32.70
2018-05-24T16:27:15.917Z,32.60
2018-05-24T16:29:43.399Z,32.50
2018-05-24T16:32:10.855Z,32.40
2018-05-24T16:34:38.379Z,32.30
2018-05-24T16:37:06.615Z,32.10
2018-05-24T16:39:34.112Z,32.10
2018-05-24T16:42:01.645Z,32.10
2018-05-24T16:44:29.127Z,32.00
2018-05-24T16:46:56.605Z,31.90
2018-05-24T16:49:24.135Z,31.90
2018-05-24T16:51:51.607Z,31.80
2018-05-24T16:54:19.127Z,31.80
2018-05-24T16:56:46.608Z,31.80
2018-05-24T16:59:14.124Z,31.70
2018-05-24T17:01:41.627Z,31.70
2018-05-24T17:04:09.076Z,31.60
2018-05-24T17:06:36.567Z,31.50
2018-05-24T17:09:04.105Z,31.50
2018-05-24T17:11:31.595Z,31.40
2018-05-24T17:13:59.067Z,31.30
2018-05-24T17:16:26.707Z,31.20
2018-05-24T17:18:55.003Z,31.10
2018-05-24T17:21:22.687Z,31.10
2018-05-24T17:23:50.144Z,31.00
2018-05-24T17:26:18.400Z,30.90
2018-05-24T17:28:45.875Z,30.90
2018-05-24T17:31:13.377Z,30.80
2018-05-24T17:33:41.643Z,30.60
2018-05-24T17:36:09.145Z,30.60
2018-05-24T17:38:37.427Z,30.50
2018-05-24T17:41:05.683Z,30.40
2018-05-24T17:43:33.342Z,30.30
2018-05-24T17:46:00.803Z,30.30
2018-05-24T17:48:28.358Z,30.10
2018-05-24T17:50:55.854Z,30.00
2018-05-24T17:53:23.443Z,29.90
2018-05-24T17:55:51.004Z,29.80
2018-05-24T17:58:18.479Z,29.80
2018-05-24T18:00:45.989Z,29.70
2018-05-24T18:03:13.493Z,29.60
2018-05-24T18:05:41.012Z,29.40
2018-05-24T18:08:08.547Z,29.30
2018-05-24T18:10:37.276Z,29.10
2018-05-24T18:13:04.820Z,29.10
2018-05-24T18:15:32.324Z,29.00
2018-05-24T18:17:59.807Z,28.90
2018-05-24T18:20:27.327Z,28.80
2018-05-24T18:22:54.786Z,28.70
2018-05-24T18:25:22.408Z,28.60
2018-05-24T18:27:49.889Z,28.50
2018-05-24T18:30:17.383Z,28.40
2018-05-24T18:32:45.632Z,28.20
2018-05-24T18:35:13.264Z,28.20
2018-05-24T18:37:40.748Z,28.10
2018-05-24T18:40:08.258Z,28.00
2018-05-24T18:42:35.716Z,27.90
2018-05-24T18:45:03.252Z,27.80
2018-05-24T18:47:30.803Z,27.70
2018-05-24T18:49:59.693Z,27.60
2018-05-24T18:52:27.175Z,27.60
2018-05-24T18:54:55.439Z,27.40
2018-05-24T18:57:22.995Z,27.40
2018-05-24T18:59:50.463Z,27.40
2018-05-24T19:02:17.923Z,27.30
2018-05-24T19:04:46.277Z,27.10
2018-05-24T19:07:13.744Z,27.10
2018-05-24T19:09:41.214Z,27.10
2018-05-24T19:12:08.697Z,27.00
2018-05-24T19:14:36.207Z,26.90
2018-05-24T19:17:03.683Z,26.90
2018-05-24T19:19:31.138Z,26.80
2018-05-24T19:22:00.256Z,26.70
2018-05-24T19:24:28.566Z,26.70
2018-05-24T19:26:56.048Z,26.70
2018-05-24T19:29:23.528Z,26.60
2018-05-24T19:31:51.041Z,26.60
2018-05-24T19:34:19.275Z,26.50
2018-05-24T19:36:46.772Z,26.50
2018-05-24T19:39:14.232Z,26.50
2018-05-24T19:41:41.752Z,26.40
2018-05-24T19:44:09.982Z,26.30
2018-05-24T19:46:37.506Z,26.30
2018-05-24T19:49:05.741Z,26.20
2018-05-24T19:51:33.251Z,26.20
2018-05-24T19:54:00.732Z,26.20
2018-05-24T19:56:32.208Z,26.10
2018-05-24T19:59:00.684Z,26.00
2018-05-24T20:01:28.172Z,26.00
2018-05-24T20:03:56.481Z,25.90
2018-05-24T20:06:23.959Z,25.90
2018-05-24T20:08:51.427Z,25.90
2018-05-24T20:11:18.909Z,25.80
2018-05-24T20:13:46.369Z,25.80
2018-05-24T20:16:13.852Z,25.70
2018-05-24T20:18:41.369Z,25.70
2018-05-24T20:21:08.854Z,25.60
2018-05-24T20:23:37.204Z,25.60
2018-05-24T20:26:04.714Z,25.60
2018-05-24T20:28:32.180Z,25.60
2018-05-24T20:31:00.479Z,25.00
2018-05-24T20:33:28.732Z,25.50
2018-05-24T20:35:56.237Z,25.50
2018-05-24T20:38:23.768Z,25.50
2018-05-24T20:40:51.267Z,25.40
2018-05-24T20:43:18.775Z,25.40
2018-05-24T20:45:46.271Z,25.40
2018-05-24T20:48:13.754Z,25.30
2018-05-24T20:50:42.063Z,25.20
2018-05-24T20:53:09.538Z,25.20
2018-05-24T20:55:37.048Z,25.20
2018-05-24T20:58:04.520Z,25.10
2018-05-24T21:00:32.003Z,25.10
2018-05-24T21:02:59.476Z,25.00
2018-05-24T21:05:27.095Z,25.00
2018-05-24T21:07:54.604Z,24.90
2018-05-24T21:10:22.077Z,24.90
2018-05-24T21:12:49.568Z,24.80
2018-05-24T21:15:17.036Z,24.70
2018-05-24T21:17:44.519Z,24.70
2018-05-24T21:20:11.979Z,24.70
2018-05-24T21:22:40.531Z,24.60
2018-05-24T21:25:08.777Z,24.50
2018-05-24T21:27:36.263Z,24.50
2018-05-24T21:30:08.709Z,24.40
2018-05-24T21:32:36.191Z,24.40
2018-05-24T21:35:03.728Z,24.40
2018-05-24T21:37:31.981Z,24.30
2018-05-24T21:39:59.462Z,24.30
2018-05-24T21:42:26.970Z,24.20
2018-05-24T21:44:54.511Z,24.20
2018-05-24T21:47:22.063Z,24.20
2018-05-24T21:49:50.287Z,24.10
2018-05-24T21:52:17.848Z,24.10
2018-05-24T21:54:46.174Z,24.00
2018-05-24T21:57:13.716Z,24.00
2018-05-24T21:59:41.261Z,24.00
2018-05-24T22:02:08.780Z,23.90
2018-05-24T22:04:36.360Z,23.90
2018-05-24T22:07:03.870Z,23.90
2018-05-24T22:09:31.421Z,23.90
2018-05-24T22:11:58.932Z,23.80
2018-05-24T22:14:26.434Z,23.80
2018-05-24T22:16:54.007Z,23.80
2018-05-24T22:19:22.282Z,23.70
2018-05-24T22:21:49.773Z,23.80
2018-05-24T22:24:17.999Z,23.70
2018-05-24T22:26:45.509Z,23.70
2018-05-24T22:29:13.095Z,23.70
2018-05-24T22:31:40.573Z,23.60
2018-05-24T22:34:08.800Z,23.60
2018-05-24T22:36:36.310Z,23.50
2018-05-24T22:39:03.902Z,23.60
2018-05-24T22:41:32.265Z,23.50
2018-05-24T22:43:59.794Z,23.50
2018-05-24T22:46:27.539Z,23.50
2018-05-24T22:48:55.830Z,23.50
2018-05-24T22:51:24.096Z,23.40
2018-05-24T22:53:51.639Z,23.40
2018-05-24T22:56:19.144Z,23.40
2018-05-24T22:58:46.701Z,23.30
2018-05-24T23:01:14.181Z,23.30
2018-05-24T23:03:41.708Z,23.30
2018-05-24T23:06:09.172Z,23.20
2018-05-24T23:08:36.848Z,23.20
2018-05-24T23:11:04.323Z,23.20
2018-05-24T23:13:31.810Z,23.10
2018-05-24T23:15:59.366Z,23.10
2018-05-24T23:18:26.860Z,23.10
2018-05-24T23:20:54.386Z,23.10
2018-05-24T23:23:22.819Z,23.00
2018-05-24T23:25:50.352Z,23.00
2018-05-24T23:28:18.598Z,23.00
2018-05-24T23:30:46.084Z,22.90
2018-05-24T23:33:13.562Z,22.90
2018-05-24T23:35:41.207Z,22.90
2018-05-24T23:38:08.704Z,22.90
2018-05-24T23:40:36.202Z,22.80
2018-05-24T23:43:03.670Z,22.80
2018-05-24T23:45:31.170Z,22.80
2018-05-24T23:47:58.654Z,22.80
2018-05-24T23:50:26.130Z,22.70
2018-05-24T23:52:53.662Z,22.70
2018-05-24T23:55:21.903Z,22.70
2018-05-24T23:57:49.424Z,22.60
